This is the latest recevied weather packets stored in our database for station/object F4IEI-10. If no packets are shown the sender has not sent any weather packets the latest 10 day(s).
| Time | Temp. | Humidity | Pressure | Rain* | Wind** | Luminosity | Snow |
|---|---|---|---|---|---|---|---|
| 1777591711 | 10.56° C | 48% | 1021.5 hPa | - | - | - | - |
| 1777590811 | 10.56° C | 48% | 1021.6 hPa | - | - | - | - |
| 1777589911 | 10.56° C | 48% | 1021.5 hPa | - | - | - | - |
| 1777589010 | 10.56° C | 47% | 1021.4 hPa | - | - | - | - |
| 1777588111 | 10.56° C | 48% | 1021.5 hPa | - | - | - | - |
| 1777587212 | 10.56° C | 48% | 1021.6 hPa | - | - | - | - |
| 1777586312 | 11.11° C | 48% | 1021.6 hPa | - | - | - | - |
| 1777585412 | 10.56° C | 49% | 1021.6 hPa | - | - | - | - |
| 1777584512 | 10° C | 51% | 1021.6 hPa | - | - | - | - |
| 1777583612 | 8.89° C | 51% | 1021.4 hPa | - | - | - | - |
| 1777582712 | 10° C | 52% | 1021.4 hPa | - | - | - | - |
| 1777581812 | 11.67° C | 46% | 1021.4 hPa | - | - | - | - |
| 1777580912 | 11.67° C | 46% | 1021.3 hPa | - | - | - | - |
| 1777580012 | 12.78° C | 46% | 1021.1 hPa | - | - | - | - |
| 1777579112 | 13.33° C | 45% | 1020.9 hPa | - | - | - | - |
| 1777578212 | 14.44° C | 45% | 1020.6 hPa | - | - | - | - |
| 1777577312 | 15° C | 44% | 1020.5 hPa | - | - | - | - |
| 1777576412 | 15° C | 45% | 1020.2 hPa | - | - | - | - |
| 1777575512 | 16.11° C | 42% | 1020.1 hPa | - | - | - | - |
| 1777574612 | 18.33° C | 38% | 1019.9 hPa | - | - | - | - |
| 1777573712 | 19.44° C | 37% | 1019.7 hPa | - | - | - | - |
| 1777572812 | 20° C | 37% | 1019.5 hPa | - | - | - | - |
| 1777571912 | 21.11° C | 36% | 1019.4 hPa | - | - | - | - |
| 1777571012 | 21.11° C | 36% | 1019.4 hPa | - | - | - | - |
| 1777570112 | 22.22° C | 36% | 1019.4 hPa | - | - | - | - |
* Rain since midnight (hover to see other rain measurements)
** Current wind speed in m/s (hover to see current wind gust speed)